createdAt,value
2017-08-08T00:00:19.744Z,8.53
2017-08-08T00:02:48.212Z,8.10
2017-08-08T00:05:15.867Z,7.70
2017-08-08T00:07:43.330Z,7.87
2017-08-08T00:10:11.005Z,8.37
2017-08-08T00:12:38.641Z,8.27
2017-08-08T00:15:06.095Z,8.60
2017-08-08T00:17:33.551Z,8.07
2017-08-08T00:20:01.031Z,7.90
2017-08-08T00:22:28.528Z,7.80
2017-08-08T00:24:57.643Z,8.27
2017-08-08T00:27:25.127Z,7.97
2017-08-08T00:29:52.615Z,8.23
2017-08-08T00:32:20.119Z,8.10
2017-08-08T00:34:47.691Z,8.03
2017-08-08T00:37:15.155Z,8.37
2017-08-08T00:39:42.688Z,7.97
2017-08-08T00:42:10.990Z,7.97
2017-08-08T00:44:38.481Z,8.50
2017-08-08T00:47:05.974Z,8.33
2017-08-08T00:49:33.467Z,8.90
2017-08-08T00:52:01.846Z,8.87
2017-08-08T00:54:30.198Z,8.63
2017-08-08T00:56:58.000Z,7.97
2017-08-08T00:59:25.588Z,7.70
2017-08-08T01:01:53.151Z,7.63
2017-08-08T01:04:21.393Z,7.40
2017-08-08T01:06:49.004Z,7.83
2017-08-08T01:09:16.567Z,7.83
2017-08-08T01:11:44.172Z,7.60
2017-08-08T01:14:12.553Z,6.97
2017-08-08T01:16:40.034Z,6.77
2017-08-08T01:19:07.665Z,7.40
2017-08-08T01:21:35.307Z,7.03
2017-08-08T01:24:02.817Z,7.20
2017-08-08T01:26:30.278Z,8.00
2017-08-08T01:28:58.625Z,7.07
2017-08-08T01:31:26.223Z,8.10
2017-08-08T01:33:53.719Z,7.80
2017-08-08T01:36:21.435Z,7.70
2017-08-08T01:38:48.951Z,7.30
2017-08-08T01:41:16.395Z,7.80
2017-08-08T01:43:43.961Z,8.30
2017-08-08T01:46:11.471Z,7.47
2017-08-08T01:48:38.922Z,7.40
2017-08-08T01:51:06.858Z,7.93
2017-08-08T01:53:34.293Z,7.50
2017-08-08T01:56:01.748Z,7.87
2017-08-08T01:58:29.480Z,8.40
2017-08-08T02:00:57.022Z,8.27
2017-08-08T02:03:24.531Z,7.90
2017-08-08T02:05:51.983Z,8.60
2017-08-08T02:08:19.497Z,8.67
2017-08-08T02:10:47.003Z,7.97
2017-08-08T02:13:14.487Z,8.57
2017-08-08T02:15:42.027Z,8.50
2017-08-08T02:18:09.474Z,7.90
2017-08-08T02:20:36.993Z,8.33
2017-08-08T02:23:04.463Z,8.23
2017-08-08T02:25:31.911Z,8.90
2017-08-08T02:27:59.439Z,8.63
2017-08-08T02:30:26.900Z,8.53
2017-08-08T02:32:54.371Z,8.80
2017-08-08T02:35:21.872Z,8.73
2017-08-08T02:37:49.351Z,8.43
2017-08-08T02:40:16.898Z,7.90
2017-08-08T02:42:44.399Z,9.23
2017-08-08T02:45:12.067Z,9.07
2017-08-08T02:47:39.587Z,8.60
2017-08-08T02:50:07.144Z,8.60
2017-08-08T02:52:34.612Z,8.20
2017-08-08T02:55:02.159Z,8.73
2017-08-08T02:57:29.759Z,9.00
2017-08-08T02:59:57.312Z,8.63
2017-08-08T03:02:24.771Z,9.53
2017-08-08T03:04:52.389Z,9.17
2017-08-08T03:07:19.884Z,9.30
2017-08-08T03:09:47.402Z,9.70
2017-08-08T03:12:15.691Z,9.80
2017-08-08T03:14:43.179Z,10.20
2017-08-08T03:17:10.630Z,10.27
2017-08-08T03:19:38.142Z,12.00
2017-08-08T03:22:05.662Z,11.00
2017-08-08T03:24:33.121Z,13.00
2017-08-08T03:27:00.775Z,12.70
2017-08-08T03:29:28.294Z,12.20
2017-08-08T03:31:55.950Z,10.30
2017-08-08T03:34:23.425Z,11.00
2017-08-08T03:36:50.962Z,9.53
2017-08-08T03:39:18.461Z,10.57
2017-08-08T03:41:47.041Z,11.00
2017-08-08T03:44:14.713Z,11.10
2017-08-08T03:46:42.819Z,11.33
2017-08-08T03:49:10.323Z,10.70
2017-08-08T03:51:38.616Z,10.27
2017-08-08T03:54:06.134Z,10.17
2017-08-08T03:56:34.807Z,9.57
2017-08-08T03:59:02.303Z,9.93
2017-08-08T04:01:30.360Z,8.53
2017-08-08T04:06:34.651Z,8.97
2017-08-08T04:09:03.317Z,8.70
2017-08-08T04:11:30.874Z,8.27
2017-08-08T04:13:58.503Z,8.77
2017-08-08T04:16:25.947Z,9.00
2017-08-08T04:18:54.282Z,8.43
2017-08-08T04:21:21.828Z,8.53
2017-08-08T04:23:49.938Z,9.10
2017-08-08T04:26:17.579Z,8.07
2017-08-08T04:28:45.100Z,8.73
2017-08-08T04:31:12.635Z,9.17
2017-08-08T04:33:40.835Z,8.50
2017-08-08T04:36:09.255Z,7.47
2017-08-08T04:38:36.707Z,8.40
2017-08-08T04:41:04.295Z,8.60
2017-08-08T04:43:31.936Z,9.37
2017-08-08T04:45:59.615Z,8.93
2017-08-08T04:48:27.192Z,8.80
2017-08-08T04:50:55.425Z,8.30
2017-08-08T04:53:22.924Z,8.67
2017-08-08T04:55:50.353Z,8.70
2017-08-08T04:58:17.863Z,8.97
2017-08-08T05:00:45.404Z,9.37
2017-08-08T05:03:12.851Z,8.50
2017-08-08T05:05:40.324Z,9.60
2017-08-08T05:08:07.888Z,8.63
2017-08-08T05:10:35.343Z,7.83
2017-08-08T05:13:02.911Z,8.87
2017-08-08T05:15:31.481Z,8.40
2017-08-08T05:17:59.803Z,8.60
2017-08-08T05:20:27.331Z,8.80
2017-08-08T05:22:54.854Z,8.50
2017-08-08T05:25:23.173Z,9.63
2017-08-08T05:27:50.718Z,9.20
2017-08-08T05:30:26.007Z,8.93
2017-08-08T05:32:56.181Z,8.60
2017-08-08T05:35:24.562Z,9.00
2017-08-08T05:37:57.829Z,9.10
2017-08-08T05:40:25.343Z,8.90
2017-08-08T05:42:52.918Z,8.70
2017-08-08T05:45:20.579Z,8.97
2017-08-08T05:47:53.045Z,8.77
2017-08-08T05:50:21.323Z,10.20
2017-08-08T05:52:51.318Z,9.03
2017-08-08T05:55:19.551Z,8.80
2017-08-08T05:57:48.467Z,8.43
2017-08-08T06:00:17.820Z,9.00
2017-08-08T06:02:45.463Z,8.80
2017-08-08T06:05:14.504Z,10.77
2017-08-08T06:07:43.094Z,11.07
2017-08-08T06:10:13.419Z,12.13
2017-08-08T06:12:41.044Z,10.40
2017-08-08T06:15:08.670Z,11.63
2017-08-08T06:17:39.104Z,11.97
2017-08-08T06:20:10.605Z,8.90
2017-08-08T06:22:38.199Z,8.50
2017-08-08T06:25:07.237Z,8.33
2017-08-08T06:27:34.763Z,8.27
2017-08-08T06:30:02.328Z,7.40
2017-08-08T06:32:30.631Z,8.43
2017-08-08T06:34:59.156Z,8.10
2017-08-08T06:37:27.856Z,7.67
2017-08-08T06:39:56.937Z,8.47
2017-08-08T06:42:25.184Z,7.87
2017-08-08T06:44:53.924Z,8.03
2017-08-08T06:47:22.222Z,8.00
2017-08-08T06:49:54.654Z,7.50
2017-08-08T06:52:28.741Z,7.80
2017-08-08T06:54:56.365Z,8.27
2017-08-08T06:59:59.328Z,7.80
2017-08-08T07:02:30.239Z,8.47
2017-08-08T07:05:00.549Z,8.10
2017-08-08T07:07:30.713Z,8.17
2017-08-08T07:09:58.243Z,7.27
2017-08-08T07:12:32.590Z,7.67
2017-08-08T07:15:00.877Z,9.00
2017-08-08T07:17:30.861Z,10.50
2017-08-08T07:19:59.592Z,8.47
2017-08-08T07:25:07.716Z,7.57
2017-08-08T07:27:36.023Z,7.57
2017-08-08T07:30:05.101Z,7.50
2017-08-08T07:32:32.650Z,10.40
2017-08-08T07:35:00.312Z,9.60
2017-08-08T07:37:27.925Z,8.07
2017-08-08T07:39:55.668Z,7.23
2017-08-08T07:42:23.287Z,8.17
2017-08-08T07:44:51.523Z,7.63
2017-08-08T07:47:19.992Z,7.87
2017-08-08T07:49:47.601Z,7.60
2017-08-08T07:52:15.136Z,7.50
2017-08-08T07:54:51.183Z,8.20
2017-08-08T07:57:19.400Z,8.00
2017-08-08T07:59:46.968Z,7.90
2017-08-08T08:02:20.234Z,6.80
2017-08-08T08:04:48.934Z,8.30
2017-08-08T08:07:31.827Z,7.77
2017-08-08T08:12:40.918Z,8.33
2017-08-08T08:15:15.014Z,8.20
2017-08-08T08:17:43.275Z,8.90
2017-08-08T08:20:17.918Z,7.90
2017-08-08T08:25:48.483Z,9.27
2017-08-08T08:28:26.626Z,9.00
2017-08-08T08:30:56.317Z,8.73
2017-08-08T08:33:25.173Z,7.97
2017-08-08T08:36:11.072Z,9.60
2017-08-08T08:41:16.003Z,9.47
2017-08-08T08:43:50.343Z,10.10
2017-08-08T08:49:33.902Z,9.70
2017-08-08T08:57:41.110Z,12.40
2017-08-08T09:08:30.008Z,9.60
2017-08-08T09:11:15.720Z,9.10
2017-08-08T09:19:20.165Z,8.77
2017-08-08T09:21:57.674Z,8.80
2017-08-08T09:27:07.309Z,7.80
2017-08-08T09:29:36.942Z,8.37
2017-08-08T09:34:58.097Z,8.50
2017-08-08T09:37:29.767Z,8.50
2017-08-08T09:40:01.437Z,9.33
2017-08-08T09:53:24.550Z,8.43
2017-08-08T09:55:52.142Z,8.37
2017-08-08T09:58:22.455Z,8.77
2017-08-08T10:01:10.400Z,7.23
2017-08-08T10:06:25.151Z,7.40
2017-08-08T10:11:33.921Z,6.43
2017-08-08T10:14:20.632Z,6.80
2017-08-08T10:16:52.712Z,7.00
2017-08-08T10:19:32.145Z,6.83
2017-08-08T10:22:13.736Z,7.00
2017-08-08T10:24:50.479Z,7.70
2017-08-08T10:27:24.519Z,6.90
2017-08-08T10:29:53.840Z,7.30
2017-08-08T10:35:06.120Z,7.10
2017-08-08T10:37:37.579Z,6.37
2017-08-08T10:40:06.565Z,6.83
2017-08-08T10:45:32.258Z,9.90
2017-08-08T10:48:04.415Z,7.47
2017-08-08T10:50:37.557Z,7.53
2017-08-08T10:53:05.691Z,6.77
2017-08-08T10:58:19.789Z,8.67
2017-08-08T11:00:59.238Z,7.97
2017-08-08T11:03:27.607Z,11.20
2017-08-08T11:06:07.858Z,7.77
2017-08-08T11:08:36.780Z,8.57
2017-08-08T11:11:05.293Z,9.27
2017-08-08T11:16:17.636Z,9.30
2017-08-08T11:21:25.539Z,8.13
2017-08-08T11:26:38.845Z,8.03
2017-08-08T11:29:13.264Z,9.27
2017-08-08T11:31:44.596Z,8.47
2017-08-08T11:34:17.459Z,7.90
2017-08-08T11:39:27.561Z,7.63
2017-08-08T11:42:00.701Z,7.43
2017-08-08T11:44:43.502Z,7.57
2017-08-08T11:47:17.866Z,7.50
2017-08-08T11:49:45.466Z,7.20
2017-08-08T11:52:14.241Z,7.83
2017-08-08T11:54:43.419Z,7.03
2017-08-08T11:57:12.443Z,7.63
2017-08-08T11:59:40.105Z,7.83
2017-08-08T12:02:09.509Z,7.00
2017-08-08T12:04:37.080Z,7.57
2017-08-08T12:07:07.560Z,7.77
2017-08-08T12:09:36.246Z,8.80
2017-08-08T12:12:06.970Z,8.53
2017-08-08T12:14:35.404Z,8.30
2017-08-08T12:17:09.786Z,8.77
2017-08-08T12:19:44.979Z,9.00
2017-08-08T12:24:52.658Z,9.73
2017-08-08T12:27:22.101Z,8.97
2017-08-08T12:32:46.675Z,8.50
2017-08-08T12:35:23.204Z,8.37
2017-08-08T12:40:42.651Z,8.50
2017-08-08T12:49:27.065Z,8.13
2017-08-08T12:52:04.827Z,9.20
2017-08-08T13:00:46.493Z,9.10
2017-08-08T13:06:29.831Z,9.43
2017-08-08T13:14:26.446Z,10.37
2017-08-08T13:22:23.088Z,8.80
2017-08-08T13:25:01.367Z,9.67
2017-08-08T13:27:32.757Z,9.20
2017-08-08T13:30:19.821Z,10.13
2017-08-08T13:38:25.464Z,9.17
2017-08-08T13:40:55.740Z,9.50
2017-08-08T13:43:54.565Z,10.47
2017-08-08T13:46:35.714Z,9.77
2017-08-08T13:51:51.629Z,9.77
2017-08-08T13:54:24.822Z,9.63
2017-08-08T13:56:52.792Z,9.10
2017-08-08T13:59:25.976Z,8.70
2017-08-08T14:04:50.872Z,9.27
2017-08-08T14:07:20.849Z,10.13
2017-08-08T14:12:44.787Z,7.97
2017-08-08T14:15:16.343Z,8.00
2017-08-08T14:21:03.976Z,8.53
2017-08-08T14:26:24.365Z,8.50
2017-08-08T14:28:53.136Z,9.33
2017-08-08T14:31:24.328Z,8.33
2017-08-08T14:33:52.137Z,8.80
2017-08-08T14:39:08.534Z,9.80
2017-08-08T14:51:02.282Z,7.80
2017-08-08T14:53:49.016Z,8.30
2017-08-08T15:20:25.589Z,8.83
2017-08-08T15:23:18.383Z,8.23
2017-08-08T15:28:48.881Z,7.00
2017-08-08T15:31:31.213Z,8.40
2017-08-08T15:34:19.838Z,7.80
2017-08-08T15:37:20.195Z,7.20
2017-08-08T15:48:47.191Z,7.07
2017-08-08T15:51:41.433Z,7.03
2017-08-08T15:54:12.770Z,7.57
2017-08-08T15:56:51.763Z,6.67
2017-08-08T15:59:24.773Z,6.50
2017-08-08T16:02:06.260Z,7.97
2017-08-08T16:04:44.219Z,6.73
2017-08-08T16:07:34.514Z,6.93
2017-08-08T16:10:05.655Z,7.07
2017-08-08T16:12:44.598Z,6.70
2017-08-08T16:15:18.008Z,7.50
2017-08-08T16:17:48.520Z,7.63
2017-08-08T16:20:20.752Z,7.50
2017-08-08T16:22:53.205Z,7.80
2017-08-08T16:25:22.422Z,7.20
2017-08-08T16:27:58.000Z,6.97
2017-08-08T16:30:34.121Z,6.83
2017-08-08T16:33:04.742Z,7.13
2017-08-08T16:35:52.995Z,7.13
2017-08-08T16:38:27.006Z,7.23
2017-08-08T16:41:03.890Z,8.07
2017-08-08T16:43:34.629Z,7.80
2017-08-08T16:46:02.337Z,7.10
2017-08-08T16:48:31.063Z,8.40
2017-08-08T16:50:58.996Z,7.83
2017-08-08T16:53:27.630Z,8.17
2017-08-08T16:55:56.465Z,8.23
2017-08-08T16:58:25.063Z,7.87
2017-08-08T17:00:53.001Z,8.13
2017-08-08T17:03:23.572Z,3.00
2017-08-08T17:05:51.662Z,1.90
2017-08-08T17:08:20.025Z,2.33
2017-08-08T17:13:33.507Z,1.60
2017-08-08T17:16:19.088Z,1.90
2017-08-08T17:18:59.210Z,2.50
2017-08-08T17:21:28.729Z,1.83
2017-08-08T17:23:57.193Z,2.63
2017-08-08T17:26:27.758Z,2.13
2017-08-08T17:54:24.706Z,4.60
2017-08-08T17:59:52.368Z,5.90
2017-08-08T18:02:22.240Z,5.40
2017-08-08T18:05:03.723Z,7.00
2017-08-08T18:07:33.023Z,7.33
2017-08-08T18:10:02.505Z,7.33
2017-08-08T18:12:45.420Z,6.90
2017-08-08T18:15:13.028Z,7.67
2017-08-08T18:17:42.485Z,8.57
2017-08-08T18:20:17.563Z,9.53
2017-08-08T18:22:53.926Z,10.00
2017-08-08T18:27:57.642Z,11.43
2017-08-08T18:30:27.211Z,10.60
2017-08-08T18:32:55.000Z,11.17
2017-08-08T18:35:24.901Z,12.17
2017-08-08T18:37:56.590Z,12.80
2017-08-08T18:40:26.758Z,12.20
2017-08-08T18:42:57.403Z,14.50
2017-08-08T18:51:10.718Z,19.57
2017-08-08T18:53:39.544Z,18.93
2017-08-08T18:56:36.542Z,20.60
2017-08-08T18:59:25.400Z,20.30
2017-08-08T19:02:10.574Z,20.00
2017-08-08T19:04:46.254Z,16.37
2017-08-08T19:07:28.438Z,16.77
2017-08-08T19:12:37.807Z,15.20
2017-08-08T19:15:11.740Z,14.37
2017-08-08T19:17:41.420Z,13.53
2017-08-08T19:20:10.006Z,13.77
2017-08-08T19:22:41.435Z,12.97
2017-08-08T19:25:10.236Z,12.10
2017-08-08T19:27:39.858Z,12.33
2017-08-08T19:30:09.406Z,11.57
2017-08-08T19:33:05.468Z,11.63
2017-08-08T19:35:40.649Z,12.93
2017-08-08T19:38:27.433Z,12.97
2017-08-08T19:40:57.486Z,11.70
2017-08-08T19:43:30.266Z,12.83
2017-08-08T19:49:01.989Z,11.83
2017-08-08T19:54:27.027Z,11.77
2017-08-08T19:57:00.839Z,12.60
2017-08-08T20:02:02.802Z,13.43
2017-08-08T20:04:32.543Z,12.70
2017-08-08T20:07:00.820Z,14.23
2017-08-08T20:09:28.536Z,13.97
2017-08-08T20:12:07.428Z,13.70
2017-08-08T20:14:56.371Z,13.67
2017-08-08T20:17:40.968Z,14.30
2017-08-08T20:20:09.306Z,14.37
2017-08-08T20:25:31.853Z,14.77
2017-08-08T20:28:00.031Z,16.70
2017-08-08T20:30:31.790Z,14.40
2017-08-08T20:33:01.652Z,14.87
2017-08-08T20:35:29.234Z,15.50
2017-08-08T20:37:57.759Z,15.33
2017-08-08T20:40:26.199Z,16.50
2017-08-08T20:43:00.816Z,15.73
2017-08-08T20:45:30.650Z,16.10
2017-08-08T20:48:02.461Z,16.30
2017-08-08T20:50:31.133Z,16.93
2017-08-08T20:52:59.348Z,17.10
2017-08-08T20:55:27.869Z,17.33
2017-08-08T20:57:55.880Z,18.03
2017-08-08T21:00:26.780Z,18.70
2017-08-08T21:02:55.291Z,18.93
2017-08-08T21:05:22.884Z,19.20
2017-08-08T21:07:53.368Z,19.27
2017-08-08T21:10:23.006Z,20.93
2017-08-08T21:12:50.926Z,20.03
2017-08-08T21:15:18.609Z,20.30
2017-08-08T21:17:51.024Z,19.57
2017-08-08T21:20:19.292Z,19.53
2017-08-08T21:22:49.574Z,22.47
2017-08-08T21:25:20.428Z,21.93
2017-08-08T21:27:48.033Z,29.00
2017-08-08T21:30:15.727Z,19.40
2017-08-08T21:32:43.409Z,19.60
2017-08-08T21:35:11.950Z,20.63
2017-08-08T21:37:40.525Z,21.13
2017-08-08T21:40:09.707Z,20.93
2017-08-08T21:42:37.949Z,21.70
2017-08-08T21:50:19.061Z,19.90
2017-08-08T21:52:47.892Z,21.63
2017-08-08T21:55:16.072Z,20.90
2017-08-08T21:57:44.475Z,22.67
2017-08-08T22:00:20.789Z,22.43
2017-08-08T22:02:49.460Z,21.40
2017-08-08T22:05:17.018Z,21.63
2017-08-08T22:07:44.566Z,22.63
2017-08-08T22:10:12.067Z,23.37
2017-08-08T22:12:39.698Z,23.10
2017-08-08T22:15:08.839Z,24.00
2017-08-08T22:17:38.052Z,23.60
2017-08-08T22:20:10.082Z,24.37
2017-08-08T22:22:37.557Z,24.77
2017-08-08T22:25:08.070Z,23.10
2017-08-08T22:27:38.430Z,24.07
2017-08-08T22:30:08.229Z,23.13
2017-08-08T22:32:36.710Z,24.17
2017-08-08T22:35:08.773Z,24.47
2017-08-08T22:37:36.283Z,25.50
2017-08-08T22:40:04.991Z,25.17
2017-08-08T22:42:32.441Z,24.83
2017-08-08T22:44:59.933Z,25.03
2017-08-08T22:47:28.158Z,25.23
2017-08-08T22:49:55.819Z,24.67
2017-08-08T22:52:23.368Z,26.07
2017-08-08T22:54:50.940Z,25.80
2017-08-08T22:57:18.491Z,25.50
2017-08-08T22:59:46.830Z,25.60
2017-08-08T23:02:14.545Z,26.53
2017-08-08T23:04:42.673Z,26.17
2017-08-08T23:07:10.483Z,26.60
2017-08-08T23:09:37.947Z,25.10
2017-08-08T23:12:06.433Z,25.17
2017-08-08T23:14:33.929Z,25.40
2017-08-08T23:17:01.657Z,24.97
2017-08-08T23:19:30.385Z,24.10
2017-08-08T23:21:59.964Z,24.73
2017-08-08T23:24:27.452Z,26.03
2017-08-08T23:27:02.783Z,25.60
2017-08-08T23:29:31.283Z,25.43
2017-08-08T23:31:58.864Z,26.10
2017-08-08T23:34:26.339Z,26.00
2017-08-08T23:36:54.581Z,24.40
2017-08-08T23:39:22.077Z,24.70
2017-08-08T23:41:50.203Z,26.70
2017-08-08T23:44:17.701Z,25.00
2017-08-08T23:46:45.161Z,25.23
2017-08-08T23:49:12.739Z,26.00
2017-08-08T23:51:40.601Z,24.00
2017-08-08T23:54:08.182Z,24.90
2017-08-08T23:56:36.660Z,26.60
2017-08-08T23:59:04.192Z,26.60
